| Date | Time | Temp. (oF) | Dew Point (oF) | Rel. Hum. (%) | Press. (in.) | Wind Dir. | Wind Speed (mph) | Hourly Rainfall (in.) |
|
|---|---|---|---|---|---|---|---|---|---|
| 1 | 06/23 | 00:00 | 66 | 54 | 67 | 29.85 | S | 0 | 0.00 |
| 2 | 06/22 | 23:00 | 68 | 53 | 60 | 29.88 | S | 0 | 0.00 |
| 3 | 06/22 | 22:00 | 72 | 53 | 53 | 29.87 | SSW | 0 | 0.00 |
| 4 | 06/22 | 21:00 | 74 | 53 | 49 | 29.84 | S | 3 | 0.00 |
| 5 | 06/22 | 20:00 | 78 | 53 | 43 | 29.81 | SSW | 0 | 0.00 |
| 6 | 06/22 | 19:00 | 80 | 52 | 39 | 29.80 | SSW | 4 | 0.00 |
| 7 | 06/22 | 18:00 | 79 | 55 | 44 | 29.80 | SE | 12 | 0.00 |
| 8 | 06/22 | 17:00 | 79 | 56 | 46 | 29.81 | S | 4 | 0.00 |
| 9 | 06/22 | 16:00 | 81 | 54 | 41 | 29.82 | S | 5 | 0.00 |
| 10 | 06/22 | 15:00 | 81 | 51 | 36 | 29.82 | S | 0 | 0.00 |
| 11 | 06/22 | 14:00 | 82 | 52 | 36 | 29.83 | WSW | 8 | 0.00 |
| 12 | 06/22 | 13:00 | 81 | 49 | 34 | 29.83 | WSW | 8 | 0.00 |
| 13 | 06/22 | 12:00 | 79 | 51 | 39 | 29.82 | SW | 5 | 0.00 |
| 14 | 06/22 | 11:00 | 78 | 53 | 43 | 29.81 | SW | 0 | 0.00 |
| 15 | 06/22 | 10:00 | 75 | 62 | 66 | 29.82 | SW | 4 | 0.00 |
| 16 | 06/22 | 09:00 | 72 | 65 | 80 | 29.81 | SSW | 6 | 0.01 |
| 17 | 06/22 | 08:00 | 68 | 63 | 86 | 29.78 | SW | 4 | 0.00 |
| 18 | 06/22 | 07:00 | 64 | 56 | 76 | 29.77 | S | 3 | 0.00 |
| 19 | 06/22 | 06:00 | 63 | 55 | 77 | 29.76 | S | 0 | 0.00 |
| 20 | 06/22 | 05:00 | 64 | 57 | 80 | 29.75 | WSW | 0 | 0.00 |
| 21 | 06/22 | 04:00 | 64 | 61 | 92 | 29.75 | S | 0 | 0.00 |
| 22 | 06/22 | 03:00 | 64 | 61 | 92 | 29.75 | S | 0 | 0.00 |
| 23 | 06/22 | 02:00 | 65 | 58 | 79 | 29.75 | S | 0 | 0.00 |
| 24 | 06/22 | 01:00 | 65 | 56 | 74 | 29.75 | S | 0 | 0.00 |